sensor_id;sensor_type;location;lat;lon;timestamp;pressure;altitude;pressure_sealevel;temperature;humidity
20424;BME280;10371;49.042;8.002;2022-09-01T00:00:35;100070.03;;;16.86;91.56
20424;BME280;10371;49.042;8.002;2022-09-01T00:01:40;100070.19;;;16.85;91.81
20424;BME280;10371;49.042;8.002;2022-09-01T00:02:41;100065.91;;;16.84;92.12
20424;BME280;10371;49.042;8.002;2022-09-01T00:03:42;100069.53;;;16.83;92.22
20424;BME280;10371;49.042;8.002;2022-09-01T00:04:43;100068.88;;;16.81;92.67
20424;BME280;10371;49.042;8.002;2022-09-01T00:05:44;100070.34;;;16.83;92.60
20424;BME280;10371;49.042;8.002;2022-09-01T00:06:46;100074.78;;;16.83;92.74
20424;BME280;10371;49.042;8.002;2022-09-01T00:07:47;100070.69;;;16.80;92.86
20424;BME280;10371;49.042;8.002;2022-09-01T00:08:50;100066.00;;;16.74;93.17
20424;BME280;10371;49.042;8.002;2022-09-01T00:09:50;100071.25;;;16.74;93.25
20424;BME280;10371;49.042;8.002;2022-09-01T00:10:50;100071.25;;;16.74;93.25
20424;BME280;10371;49.042;8.002;2022-09-01T00:11:53;100066.66;;;16.76;93.19
20424;BME280;10371;49.042;8.002;2022-09-01T00:12:54;100068.63;;;16.74;93.33
20424;BME280;10371;49.042;8.002;2022-09-01T00:13:56;100070.75;;;16.70;93.58
20424;BME280;10371;49.042;8.002;2022-09-01T00:14:57;100073.22;;;16.72;93.59
20424;BME280;10371;49.042;8.002;2022-09-01T00:15:59;100067.13;;;16.71;93.41
20424;BME280;10371;49.042;8.002;2022-09-01T00:17:03;100064.81;;;16.68;93.85
20424;BME280;10371;49.042;8.002;2022-09-01T00:18:04;100069.94;;;16.70;93.80
20424;BME280;10371;49.042;8.002;2022-09-01T00:19:05;100069.44;;;16.66;93.80
20424;BME280;10371;49.042;8.002;2022-09-01T00:20:06;100071.06;;;16.67;93.76
20424;BME280;10371;49.042;8.002;2022-09-01T00:21:09;100063.03;;;16.69;93.82
20424;BME280;10371;49.042;8.002;2022-09-01T00:22:10;100066.63;;;16.68;93.51
20424;BME280;10371;49.042;8.002;2022-09-01T00:23:10;100070.06;;;16.68;93.94
20424;BME280;10371;49.042;8.002;2022-09-01T00:24:13;100070.75;;;16.70;93.53
20424;BME280;10371;49.042;8.002;2022-09-01T00:25:13;100065.81;;;16.67;93.41
20424;BME280;10371;49.042;8.002;2022-09-01T00:26:15;100067.63;;;16.67;93.74
20424;BME280;10371;49.042;8.002;2022-09-01T00:27:15;100065.81;;;16.67;93.66
20424;BME280;10371;49.042;8.002;2022-09-01T00:28:15;100063.81;;;16.61;94.05
20424;BME280;10371;49.042;8.002;2022-09-01T00:29:16;100062.34;;;16.67;93.78
20424;BME280;10371;49.042;8.002;2022-09-01T00:30:17;100068.44;;;16.67;93.67
20424;BME280;10371;49.042;8.002;2022-09-01T00:31:18;100064.50;;;16.71;93.22
20424;BME280;10371;49.042;8.002;2022-09-01T00:32:19;100063.31;;;16.66;93.22
20424;BME280;10371;49.042;8.002;2022-09-01T00:33:19;100063.03;;;16.69;93.53
20424;BME280;10371;49.042;8.002;2022-09-01T00:34:20;100059.06;;;16.65;93.48
20424;BME280;10371;49.042;8.002;2022-09-01T00:35:21;100060.06;;;16.64;93.26
20424;BME280;10371;49.042;8.002;2022-09-01T00:36:21;100056.75;;;16.62;93.59
20424;BME280;10371;49.042;8.002;2022-09-01T00:37:22;100055.44;;;16.58;93.67
20424;BME280;10371;49.042;8.002;2022-09-01T00:38:22;100067.13;;;16.63;93.63
20424;BME280;10371;49.042;8.002;2022-09-01T00:39:23;100056.75;;;16.62;93.92
20424;BME280;10371;49.042;8.002;2022-09-01T00:40:23;100053.97;;;16.63;93.49
20424;BME280;10371;49.042;8.002;2022-09-01T00:41:25;100063.63;;;16.63;93.92
20424;BME280;10371;49.042;8.002;2022-09-01T00:42:26;100066.25;;;16.63;93.76
20424;BME280;10371;49.042;8.002;2022-09-01T00:43:50;100063.63;;;16.63;93.96
20424;BME280;10371;49.042;8.002;2022-09-01T00:44:51;100058.56;;;16.61;93.92
20424;BME280;10371;49.042;8.002;2022-09-01T00:45:51;100062.31;;;16.59;94.01
20424;BME280;10371;49.042;8.002;2022-09-01T00:46:54;100060.50;;;16.59;94.11
20424;BME280;10371;49.042;8.002;2022-09-01T00:47:55;100060.00;;;16.56;94.24
20424;BME280;10371;49.042;8.002;2022-09-01T00:49:00;100053.75;;;16.57;94.26
20424;BME280;10371;49.042;8.002;2022-09-01T00:50:03;100058.50;;;16.53;94.36
20424;BME280;10371;49.042;8.002;2022-09-01T00:51:06;100053.75;;;16.57;94.26
20424;BME280;10371;49.042;8.002;2022-09-01T00:52:11;100053.94;;;16.55;94.37
20424;BME280;10371;49.042;8.002;2022-09-01T00:53:12;100054.91;;;16.54;94.70
20424;BME280;10371;49.042;8.002;2022-09-01T00:54:18;100055.72;;;16.54;94.58
20424;BME280;10371;49.042;8.002;2022-09-01T00:55:28;100054.44;;;16.59;94.60
20424;BME280;10371;49.042;8.002;2022-09-01T00:56:29;100052.47;;;16.61;94.54
20424;BME280;10371;49.042;8.002;2022-09-01T00:57:31;100051.50;;;16.62;94.33
20424;BME280;10371;49.042;8.002;2022-09-01T00:58:33;100044.59;;;16.61;94.40
20424;BME280;10371;49.042;8.002;2022-09-01T00:59:36;100044.59;;;16.61;94.34
20424;BME280;10371;49.042;8.002;2022-09-01T01:00:38;100058.69;;;16.60;94.58
20424;BME280;10371;49.042;8.002;2022-09-01T01:01:42;100053.75;;;16.57;94.84
20424;BME280;10371;49.042;8.002;2022-09-01T01:02:42;100051.44;;;16.53;94.96
20424;BME280;10371;49.042;8.002;2022-09-01T01:03:44;100052.13;;;16.56;95.22
20424;BME280;10371;49.042;8.002;2022-09-01T01:04:46;100053.94;;;16.55;94.98
20424;BME280;10371;49.042;8.002;2022-09-01T01:05:53;100055.72;;;16.54;95.41
20424;BME280;10371;49.042;8.002;2022-09-01T01:06:56;100050.78;;;16.51;95.50
20424;BME280;10371;49.042;8.002;2022-09-01T01:08:02;100057.69;;;16.52;95.46
20424;BME280;10371;49.042;8.002;2022-09-01T01:09:03;100056.69;;;16.53;95.46
20424;BME280;10371;49.042;8.002;2022-09-01T01:10:06;100057.69;;;16.52;95.76
20424;BME280;10371;49.042;8.002;2022-09-01T01:11:14;100060.63;;;16.49;95.96
20424;BME280;10371;49.042;8.002;2022-09-01T01:12:16;100059.66;;;16.50;96.12
20424;BME280;10371;49.042;8.002;2022-09-01T01:13:17;100062.13;;;16.52;95.96
20424;BME280;10371;49.042;8.002;2022-09-01T01:14:19;100057.16;;;16.49;96.36
20424;BME280;10371;49.042;8.002;2022-09-01T01:15:20;100050.41;;;16.46;96.40
20424;BME280;10371;49.042;8.002;2022-09-01T01:16:21;100054.38;;;16.50;96.32
20424;BME280;10371;49.042;8.002;2022-09-01T01:17:23;100057.03;;;16.50;96.39
20424;BME280;10371;49.042;8.002;2022-09-01T01:18:24;100051.09;;;16.48;96.43
20424;BME280;10371;49.042;8.002;2022-09-01T01:19:45;100057.34;;;16.47;96.63
20424;BME280;10371;49.042;8.002;2022-09-01T01:21:06;100058.81;;;16.50;96.81
20424;BME280;10371;49.042;8.002;2022-09-01T01:22:38;100056.34;;;16.48;96.90
20424;BME280;10371;49.042;8.002;2022-09-01T01:24:08;100055.66;;;16.46;97.51
20424;BME280;10371;49.042;8.002;2022-09-01T01:25:10;100053.22;;;16.45;97.52
20424;BME280;10371;49.042;8.002;2022-09-01T01:26:11;100055.84;;;16.45;97.68
20424;BME280;10371;49.042;8.002;2022-09-01T01:27:12;100057.47;;;16.46;97.78
20424;BME280;10371;49.042;8.002;2022-09-01T01:28:28;100050.72;;;16.43;97.99
20424;BME280;10371;49.042;8.002;2022-09-01T01:29:33;100053.53;;;16.42;98.18
20424;BME280;10371;49.042;8.002;2022-09-01T01:30:34;100060.59;;;16.41;98.18
20424;BME280;10371;49.042;8.002;2022-09-01T01:31:36;100058.91;;;16.40;98.37
20424;BME280;10371;49.042;8.002;2022-09-01T01:32:38;100057.28;;;16.39;98.75
20424;BME280;10371;49.042;8.002;2022-09-01T01:33:52;100054.81;;;16.38;98.62
20424;BME280;10371;49.042;8.002;2022-09-01T01:34:52;100046.41;;;16.34;98.86
20424;BME280;10371;49.042;8.002;2022-09-01T01:35:53;100048.03;;;16.35;99.03
20424;BME280;10371;49.042;8.002;2022-09-01T01:36:56;100059.56;;;16.34;99.21
20424;BME280;10371;49.042;8.002;2022-09-01T01:38:00;100058.72;;;16.34;99.25
20424;BME280;10371;49.042;8.002;2022-09-01T01:39:05;100061.19;;;16.35;99.34
20424;BME280;10371;49.042;8.002;2022-09-01T01:40:07;100060.53;;;16.33;99.41
20424;BME280;10371;49.042;8.002;2022-09-01T01:41:15;100057.22;;;16.31;99.75
20424;BME280;10371;49.042;8.002;2022-09-01T01:42:18;100056.56;;;16.29;99.78
20424;BME280;10371;49.042;8.002;2022-09-01T01:43:20;100058.88;;;16.32;100.00
20424;BME280;10371;49.042;8.002;2022-09-01T01:44:24;100054.59;;;16.31;99.91
20424;BME280;10371;49.042;8.002;2022-09-01T01:45:27;100059.88;;;16.31;100.00
20424;BME280;10371;49.042;8.002;2022-09-01T01:46:29;100064.31;;;16.30;100.00
20424;BME280;10371;49.042;8.002;2022-09-01T01:47:29;100054.91;;;16.28;100.00
20424;BME280;10371;49.042;8.002;2022-09-01T01:48:29;100059.50;;;16.26;100.00
20424;BME280;10371;49.042;8.002;2022-09-01T01:49:35;100061.44;;;16.24;100.00
20424;BME280;10371;49.042;8.002;2022-09-01T01:50:36;100050.59;;;16.19;100.00
20424;BME280;10371;49.042;8.002;2022-09-01T01:51:37;100060.81;;;16.22;100.00
20424;BME280;10371;49.042;8.002;2022-09-01T01:52:37;100057.50;;;16.20;100.00
20424;BME280;10371;49.042;8.002;2022-09-01T01:53:38;100056.50;;;16.21;100.00
20424;BME280;10371;49.042;8.002;2022-09-01T01:54:39;100050.59;;;16.19;100.00
20424;BME280;10371;49.042;8.002;2022-09-01T01:55:40;100052.69;;;16.15;100.00
20424;BME280;10371;49.042;8.002;2022-09-01T01:56:40;100059.44;;;16.18;100.00
20424;BME280;10371;49.042;8.002;2022-09-01T01:57:41;100052.69;;;16.15;100.00
20424;BME280;10371;49.042;8.002;2022-09-01T01:58:47;100058.94;;;16.14;100.00
20424;BME280;10371;49.042;8.002;2022-09-01T01:59:48;100063.50;;;16.12;100.00
20424;BME280;10371;49.042;8.002;2022-09-01T02:00:49;100057.75;;;16.08;100.00
20424;BME280;10371;49.042;8.002;2022-09-01T02:01:50;100054.31;;;16.08;100.00
20424;BME280;10371;49.042;8.002;2022-09-01T02:02:50;100052.63;;;16.07;100.00
20424;BME280;10371;49.042;8.002;2022-09-01T02:03:55;100059.88;;;16.05;100.00
20424;BME280;10371;49.042;8.002;2022-09-01T02:04:55;100053.25;;;16.01;100.00
20424;BME280;10371;49.042;8.002;2022-09-01T02:05:55;100052.28;;;16.02;100.00
20424;BME280;10371;49.042;8.002;2022-09-01T02:06:56;100055.19;;;15.99;100.00
20424;BME280;10371;49.042;8.002;2022-09-01T02:08:02;100046.69;;;15.97;100.00
20424;BME280;10371;49.042;8.002;2022-09-01T02:09:03;100046.81;;;15.95;100.00
20424;BME280;10371;49.042;8.002;2022-09-01T02:10:04;100050.44;;;15.94;100.00
20424;BME280;10371;49.042;8.002;2022-09-01T02:11:06;100050.44;;;15.94;100.00
20424;BME280;10371;49.042;8.002;2022-09-01T02:12:07;100051.25;;;15.95;100.00
20424;BME280;10371;49.042;8.002;2022-09-01T02:13:09;100055.69;;;15.94;100.00
20424;BME280;10371;49.042;8.002;2022-09-01T02:14:15;100045.19;;;15.94;100.00
20424;BME280;10371;49.042;8.002;2022-09-01T02:15:19;100050.06;;;15.89;100.00
20424;BME280;10371;49.042;8.002;2022-09-01T02:16:19;100047.56;;;15.88;100.00
20424;BME280;10371;49.042;8.002;2022-09-01T02:17:21;100041.50;;;15.87;100.00
20424;BME280;10371;49.042;8.002;2022-09-01T02:18:25;100045.94;;;15.86;100.00
20424;BME280;10371;49.042;8.002;2022-09-01T02:19:27;100041.50;;;15.87;100.00
20424;BME280;10371;49.042;8.002;2022-09-01T02:20:27;100046.75;;;15.87;100.00
20424;BME280;10371;49.042;8.002;2022-09-01T02:21:29;100043.31;;;15.86;100.00
20424;BME280;10371;49.042;8.002;2022-09-01T02:22:29;100040.00;;;15.84;100.00
20424;BME280;10371;49.042;8.002;2022-09-01T02:23:29;100036.72;;;15.82;100.00
20424;BME280;10371;49.042;8.002;2022-09-01T02:24:30;100047.06;;;15.84;100.00
20424;BME280;10371;49.042;8.002;2022-09-01T02:25:31;100042.13;;;15.81;100.00
20424;BME280;10371;49.042;8.002;2022-09-01T02:26:38;100043.09;;;15.80;100.00
20424;BME280;10371;49.042;8.002;2022-09-01T02:27:39;100045.56;;;15.81;100.00
20424;BME280;10371;49.042;8.002;2022-09-01T02:28:43;100045.72;;;15.80;100.00
20424;BME280;10371;49.042;8.002;2022-09-01T02:29:44;100051.28;;;15.77;100.00
20424;BME280;10371;49.042;8.002;2022-09-01T02:30:47;100047.66;;;15.78;100.00
20424;BME280;10371;49.042;8.002;2022-09-01T02:31:55;100047.97;;;15.75;100.00
20424;BME280;10371;49.042;8.002;2022-09-01T02:32:55;100047.28;;;15.73;100.00
20424;BME280;10371;49.042;8.002;2022-09-01T02:33:57;100044.66;;;15.73;100.00
20424;BME280;10371;49.042;8.002;2022-09-01T02:34:57;100043.03;;;15.72;100.00
20424;BME280;10371;49.042;8.002;2022-09-01T02:36:06;100045.50;;;15.73;100.00
20424;BME280;10371;49.042;8.002;2022-09-01T02:37:07;100048.28;;;15.72;100.00
20424;BME280;10371;49.042;8.002;2022-09-01T02:38:07;100039.72;;;15.70;100.00
20424;BME280;10371;49.042;8.002;2022-09-01T02:39:07;100038.34;;;15.65;100.00
20424;BME280;10371;49.042;8.002;2022-09-01T02:40:08;100047.59;;;15.70;100.00
20424;BME280;10371;49.042;8.002;2022-09-01T02:41:09;100034.06;;;15.64;100.00
20424;BME280;10371;49.042;8.002;2022-09-01T02:42:11;100039.31;;;15.64;100.00
20424;BME280;10371;49.042;8.002;2022-09-01T02:43:15;100041.94;;;15.64;100.00
20424;BME280;10371;49.042;8.002;2022-09-01T02:44:19;100040.31;;;15.63;100.00
20424;BME280;10371;49.042;8.002;2022-09-01T02:45:21;100048.31;;;15.62;100.00
20424;BME280;10371;49.042;8.002;2022-09-01T02:46:23;100045.69;;;15.62;100.00
20424;BME280;10371;49.042;8.002;2022-09-01T02:47:24;100047.38;;;15.63;100.00
20424;BME280;10371;49.042;8.002;2022-09-01T02:48:27;100034.50;;;15.60;100.00
20424;BME280;10371;49.042;8.002;2022-09-01T02:49:31;100046.38;;;15.64;100.00
20424;BME280;10371;49.042;8.002;2022-09-01T02:50:31;100050.13;;;15.61;100.00
20424;BME280;10371;49.042;8.002;2022-09-01T02:51:32;100039.75;;;15.60;100.00
20424;BME280;10371;49.042;8.002;2022-09-01T02:52:33;100040.59;;;15.60;100.00
20424;BME280;10371;49.042;8.002;2022-09-01T02:53:37;100042.38;;;15.60;100.00
20424;BME280;10371;49.042;8.002;2022-09-01T02:54:38;100039.09;;;15.58;100.00
20424;BME280;10371;49.042;8.002;2022-09-01T02:55:38;100040.91;;;15.57;100.00
20424;BME280;10371;49.042;8.002;2022-09-01T02:56:39;100047.81;;;15.58;100.00
20424;BME280;10371;49.042;8.002;2022-09-01T02:57:39;100039.94;;;15.58;100.00
20424;BME280;10371;49.042;8.002;2022-09-01T02:58:42;100046.69;;;15.61;100.00
20424;BME280;10371;49.042;8.002;2022-09-01T02:59:45;100043.22;;;15.60;100.00
20424;BME280;10371;49.042;8.002;2022-09-01T03:00:51;100041.56;;;15.59;100.00
20424;BME280;10371;49.042;8.002;2022-09-01T03:01:52;100044.88;;;15.61;100.00
20424;BME280;10371;49.042;8.002;2022-09-01T03:02:55;100044.19;;;15.59;100.00
20424;BME280;10371;49.042;8.002;2022-09-01T03:04:01;100046.00;;;15.59;100.00
20424;BME280;10371;49.042;8.002;2022-09-01T03:05:02;100037.31;;;15.58;100.00
20424;BME280;10371;49.042;8.002;2022-09-01T03:06:02;100029.56;;;15.57;100.00
20424;BME280;10371;49.042;8.002;2022-09-01T03:07:09;100032.06;;;15.58;100.00
20424;BME280;10371;49.042;8.002;2022-09-01T03:08:11;100036.31;;;15.59;100.00
20424;BME280;10371;49.042;8.002;2022-09-01T03:09:16;100033.38;;;15.62;100.00
20424;BME280;10371;49.042;8.002;2022-09-01T03:10:17;100030.94;;;15.61;100.00
20424;BME280;10371;49.042;8.002;2022-09-01T03:11:21;100036.19;;;15.61;100.00
20424;BME280;10371;49.042;8.002;2022-09-01T03:12:23;100037.97;;;15.60;100.00
20424;BME280;10371;49.042;8.002;2022-09-01T03:13:23;100031.25;;;15.58;100.00
20424;BME280;10371;49.042;8.002;2022-09-01T03:14:25;100036.19;;;15.61;100.00
20424;BME280;10371;49.042;8.002;2022-09-01T03:15:25;100034.50;;;15.60;100.00
20424;BME280;10371;49.042;8.002;2022-09-01T03:16:26;100032.88;;;15.59;100.00
20424;BME280;10371;49.042;8.002;2022-09-01T03:17:29;100032.38;;;15.55;100.00
20424;BME280;10371;49.042;8.002;2022-09-01T03:18:29;100034.81;;;15.57;100.00
20424;BME280;10371;49.042;8.002;2022-09-01T03:19:29;100036.31;;;15.59;100.00
20424;BME280;10371;49.042;8.002;2022-09-01T03:20:41;100029.06;;;15.53;100.00
20424;BME280;10371;49.042;8.002;2022-09-01T03:21:46;100034.16;;;15.55;100.00
20424;BME280;10371;49.042;8.002;2022-09-01T03:22:48;100032.81;;;15.51;100.00
20424;BME280;10371;49.042;8.002;2022-09-01T03:23:51;100031.69;;;15.53;100.00
20424;BME280;10371;49.042;8.002;2022-09-01T03:24:51;100034.31;;;15.53;100.00
20424;BME280;10371;49.042;8.002;2022-09-01T03:25:52;100029.22;;;15.52;100.00
20424;BME280;10371;49.042;8.002;2022-09-01T03:26:52;100041.19;;;15.54;100.00
20424;BME280;10371;49.042;8.002;2022-09-01T03:27:53;100033.78;;;15.50;100.00
20424;BME280;10371;49.042;8.002;2022-09-01T03:28:53;100032.97;;;15.49;100.00
20424;BME280;10371;49.042;8.002;2022-09-01T03:29:53;100036.16;;;15.43;100.00
20424;BME280;10371;49.042;8.002;2022-09-01T03:30:56;100034.91;;;15.47;100.00
20424;BME280;10371;49.042;8.002;2022-09-01T03:31:56;100033.28;;;15.46;100.00
20424;BME280;10371;49.042;8.002;2022-09-01T03:32:57;100034.22;;;15.45;100.00
20424;BME280;10371;49.042;8.002;2022-09-01T03:33:59;100035.22;;;15.44;100.00
20424;BME280;10371;49.042;8.002;2022-09-01T03:35:00;100039.91;;;15.40;100.00
20424;BME280;10371;49.042;8.002;2022-09-01T03:36:00;100033.84;;;15.40;100.00
20424;BME280;10371;49.042;8.002;2022-09-01T03:37:00;100038.44;;;15.38;100.00
20424;BME280;10371;49.042;8.002;2022-09-01T03:38:02;100042.53;;;15.40;100.00
20424;BME280;10371;49.042;8.002;2022-09-01T03:39:03;100040.75;;;15.41;100.00
20424;BME280;10371;49.042;8.002;2022-09-01T03:40:06;100036.78;;;15.37;100.00
20424;BME280;10371;49.042;8.002;2022-09-01T03:41:07;100045.47;;;15.37;100.00
20424;BME280;10371;49.042;8.002;2022-09-01T03:42:08;100042.31;;;15.34;100.00
20424;BME280;10371;49.042;8.002;2022-09-01T03:43:12;100042.47;;;15.32;100.00
20424;BME280;10371;49.042;8.002;2022-09-01T03:44:13;100032.81;;;15.33;100.00
20424;BME280;10371;49.042;8.002;2022-09-01T03:45:15;100034.75;;;15.31;100.00
20424;BME280;10371;49.042;8.002;2022-09-01T03:46:20;100042.63;;;15.31;100.00
20424;BME280;10371;49.042;8.002;2022-09-01T03:47:20;100034.75;;;15.31;100.00
20424;BME280;10371;49.042;8.002;2022-09-01T03:48:22;100034.75;;;15.31;100.00
20424;BME280;10371;49.042;8.002;2022-09-01T03:49:25;100036.69;;;15.29;100.00
20424;BME280;10371;49.042;8.002;2022-09-01T03:50:26;100037.38;;;15.31;100.00
20424;BME280;10371;49.042;8.002;2022-09-01T03:51:27;100040.97;;;15.30;100.00
20424;BME280;10371;49.042;8.002;2022-09-01T03:52:30;100032.13;;;15.31;100.00
20424;BME280;10371;49.042;8.002;2022-09-01T03:53:32;100032.56;;;15.26;100.00
20424;BME280;10371;49.042;8.002;2022-09-01T03:54:36;100035.88;;;15.28;100.00
20424;BME280;10371;49.042;8.002;2022-09-01T03:55:36;100032.72;;;15.25;100.00
20424;BME280;10371;49.042;8.002;2022-09-01T03:56:37;100040.59;;;15.25;100.00
20424;BME280;10371;49.042;8.002;2022-09-01T03:57:40;100037.97;;;15.25;100.00
20424;BME280;10371;49.042;8.002;2022-09-01T03:58:42;100035.66;;;15.22;100.00
20424;BME280;10371;49.042;8.002;2022-09-01T03:59:46;100037.16;;;15.24;100.00
20424;BME280;10371;49.042;8.002;2022-09-01T04:00:50;100033.69;;;15.24;100.00
20424;BME280;10371;49.042;8.002;2022-09-01T04:01:54;100039.91;;;15.23;100.00
20424;BME280;10371;49.042;8.002;2022-09-01T04:02:57;100034.66;;;15.23;100.00
20424;BME280;10371;49.042;8.002;2022-09-01T04:03:58;100033.03;;;15.22;100.00
20424;BME280;10371;49.042;8.002;2022-09-01T04:05:00;100037.28;;;15.23;100.00
20424;BME280;10371;49.042;8.002;2022-09-01T04:06:01;100044.19;;;15.24;100.00
20424;BME280;10371;49.042;8.002;2022-09-01T04:07:01;100038.94;;;15.24;100.00
20424;BME280;10371;49.042;8.002;2022-09-01T04:08:04;100036.31;;;15.24;100.00
20424;BME280;10371;49.042;8.002;2022-09-01T04:09:05;100038.94;;;15.24;100.00
20424;BME280;10371;49.042;8.002;2022-09-01T04:10:06;100039.22;;;15.20;100.00
20424;BME280;10371;49.042;8.002;2022-09-01T04:11:14;100037.47;;;15.21;100.00
20424;BME280;10371;49.042;8.002;2022-09-01T04:12:17;100037.88;;;15.16;100.00
20424;BME280;10371;49.042;8.002;2022-09-01T04:13:23;100030.97;;;15.15;100.00
20424;BME280;10371;49.042;8.002;2022-09-01T04:14:25;100039.81;;;15.14;100.00
20424;BME280;10371;49.042;8.002;2022-09-01T04:15:27;100034.75;;;15.13;100.00
20424;BME280;10371;49.042;8.002;2022-09-01T04:16:30;100040.81;;;15.13;100.00
20424;BME280;10371;49.042;8.002;2022-09-01T04:17:50;100036.53;;;15.12;100.00
20424;BME280;10371;49.042;8.002;2022-09-01T04:19:09;100040.81;;;15.13;100.00
20424;BME280;10371;49.042;8.002;2022-09-01T04:20:19;100047.00;;;15.12;100.00
20424;BME280;10371;49.042;8.002;2022-09-01T04:21:20;100032.25;;;15.11;100.00
20424;BME280;10371;49.042;8.002;2022-09-01T04:22:21;100040.25;;;15.10;100.00
20424;BME280;10371;49.042;8.002;2022-09-01T04:23:24;100035.19;;;15.08;100.00
20424;BME280;10371;49.042;8.002;2022-09-01T04:24:28;100042.06;;;15.09;100.00
20424;BME280;10371;49.042;8.002;2022-09-01T04:25:28;100041.25;;;15.09;100.00
20424;BME280;10371;49.042;8.002;2022-09-01T04:26:28;100034.38;;;15.08;100.00
20424;BME280;10371;49.042;8.002;2022-09-01T04:27:30;100038.09;;;15.05;100.00
20424;BME280;10371;49.042;8.002;2022-09-01T04:28:32;100039.91;;;15.05;100.00
20424;BME280;10371;49.042;8.002;2022-09-01T04:29:37;100037.41;;;15.03;100.00
20424;BME280;10371;49.042;8.002;2022-09-01T04:30:38;100042.66;;;15.03;100.00
20424;BME280;10371;49.042;8.002;2022-09-01T04:31:39;100040.34;;;15.00;100.00
20424;BME280;10371;49.042;8.002;2022-09-01T04:32:41;100043.34;;;15.05;100.00
20424;BME280;10371;49.042;8.002;2022-09-01T04:33:50;100040.25;;;15.10;100.00
20424;BME280;10371;49.042;8.002;2022-09-01T04:34:51;100049.63;;;15.12;100.00
20424;BME280;10371;49.042;8.002;2022-09-01T04:35:52;100042.06;;;15.09;100.00
20424;BME280;10371;49.042;8.002;2022-09-01T04:36:55;100043.72;;;15.10;100.00
20424;BME280;10371;49.042;8.002;2022-09-01T04:37:58;100042.06;;;15.09;100.00
20424;BME280;10371;49.042;8.002;2022-09-01T04:39:00;100039.59;;;15.08;100.00
20424;BME280;10371;49.042;8.002;2022-09-01T04:40:02;100044.03;;;15.07;100.00
20424;BME280;10371;49.042;8.002;2022-09-01T04:41:04;100042.34;;;15.06;100.00
20424;BME280;10371;49.042;8.002;2022-09-01T04:42:05;100041.41;;;15.07;100.00
20424;BME280;10371;49.042;8.002;2022-09-01T04:43:08;100042.06;;;15.09;100.00
20424;BME280;10371;49.042;8.002;2022-09-01T04:44:08;100041.09;;;15.10;100.00
20424;BME280;10371;49.042;8.002;2022-09-01T04:45:09;100043.88;;;15.09;100.00
20424;BME280;10371;49.042;8.002;2022-09-01T04:46:10;100043.72;;;15.10;100.00
20424;BME280;10371;49.042;8.002;2022-09-01T04:47:13;100045.25;;;15.13;100.00
20424;BME280;10371;49.042;8.002;2022-09-01T04:48:19;100039.31;;;15.11;100.00
20424;BME280;10371;49.042;8.002;2022-09-01T04:49:21;100041.25;;;15.09;100.00
20424;BME280;10371;49.042;8.002;2022-09-01T04:50:25;100044.03;;;15.07;100.00
20424;BME280;10371;49.042;8.002;2022-09-01T04:51:30;100041.41;;;15.07;100.00
20424;BME280;10371;49.042;8.002;2022-09-01T04:52:30;100039.59;;;15.08;100.00
20424;BME280;10371;49.042;8.002;2022-09-01T04:53:31;100037.13;;;15.06;100.00
20424;BME280;10371;49.042;8.002;2022-09-01T04:54:31;100032.84;;;15.05;100.00
20424;BME280;10371;49.042;8.002;2022-09-01T04:55:37;100033.81;;;15.04;100.00
20424;BME280;10371;49.042;8.002;2022-09-01T04:56:45;100029.25;;;15.06;100.00
20424;BME280;10371;49.042;8.002;2022-09-01T04:57:48;100030.22;;;15.05;100.00
20424;BME280;10371;49.042;8.002;2022-09-01T04:58:50;100041.41;;;15.07;100.00
20424;BME280;10371;49.042;8.002;2022-09-01T04:59:51;100039.59;;;15.08;100.00
20424;BME280;10371;49.042;8.002;2022-09-01T05:00:51;100031.88;;;15.06;100.00
20424;BME280;10371;49.042;8.002;2022-09-01T05:01:52;100029.94;;;15.08;100.00
20424;BME280;10371;49.042;8.002;2022-09-01T05:02:57;100032.41;;;15.10;100.00
20424;BME280;10371;49.042;8.002;2022-09-01T05:04:03;100035.69;;;15.12;100.00
20424;BME280;10371;49.042;8.002;2022-09-01T05:05:04;100031.28;;;15.12;100.00
20424;BME280;10371;49.042;8.002;2022-09-01T05:06:17;100030.16;;;15.15;100.00
20424;BME280;10371;49.042;8.002;2022-09-01T05:07:18;100029.84;;;15.18;100.00
20424;BME280;10371;49.042;8.002;2022-09-01T05:08:21;100027.22;;;15.18;100.00
20424;BME280;10371;49.042;8.002;2022-09-01T05:09:22;100033.97;;;15.20;100.00
20424;BME280;10371;49.042;8.002;2022-09-01T05:10:24;100028.75;;;15.20;100.00
20424;BME280;10371;49.042;8.002;2022-09-01T05:11:28;100030.09;;;15.25;100.00
20424;BME280;10371;49.042;8.002;2022-09-01T05:12:31;100034.22;;;15.27;100.00
20424;BME280;10371;49.042;8.002;2022-09-01T05:13:31;100032.13;;;15.31;100.00
20424;BME280;10371;49.042;8.002;2022-09-01T05:14:31;100030.31;;;15.31;100.00
20424;BME280;10371;49.042;8.002;2022-09-01T05:15:32;100021.34;;;15.34;100.00
20424;BME280;10371;49.042;8.002;2022-09-01T05:16:33;100022.97;;;15.35;100.00
20424;BME280;10371;49.042;8.002;2022-09-01T05:17:35;100024.63;;;15.36;100.00
20424;BME280;10371;49.042;8.002;2022-09-01T05:18:38;100032.22;;;15.39;100.00
20424;BME280;10371;49.042;8.002;2022-09-01T05:19:42;100031.91;;;15.42;100.00
20424;BME280;10371;49.042;8.002;2022-09-01T05:20:42;100027.16;;;15.46;100.00
20424;BME280;10371;49.042;8.002;2022-09-01T05:21:44;100029.34;;;15.50;100.00
20424;BME280;10371;49.042;8.002;2022-09-01T05:22:45;100027.13;;;15.55;100.00
20424;BME280;10371;49.042;8.002;2022-09-01T05:23:45;100027.13;;;15.55;100.00
20424;BME280;10371;49.042;8.002;2022-09-01T05:24:46;100024.31;;;15.57;100.00